Time;durP1;ratioP1;P1;durP2;ratioP2;P2;SDS_P1;SDS_P2;PMS_P1;PMS_P2;Temp;Humidity;BMP_temperature;BMP_pressure;BME280_temperature;BME280_humidity;BME280_pressure;Samples;Min_cycle;Max_cycle;Signal;HPM_P1;HPM_P2
2022/10/31 00:01:12;;;;;;;2.00;1.40;;;;;;;9.95;100.00;99372.89;1749411;80;21419;-68
2022/10/31 00:03:39;;;;;;;3.42;1.42;;;;;;;9.95;100.00;99371.58;1758336;80;21789;-68
2022/10/31 00:06:06;;;;;;;4.20;1.45;;;;;;;9.93;100.00;99364.23;1766680;80;21565;-67
2022/10/31 00:08:34;;;;;;;2.05;1.15;;;;;;;9.93;100.00;99365.08;1758706;80;21600;-68
2022/10/31 00:11:03;;;;;;;3.62;1.15;;;;;;;9.92;100.00;99379.59;1751964;80;21581;-67
2022/10/31 00:13:31;;;;;;;3.45;1.37;;;;;;;9.87;100.00;99369.73;1763097;80;20989;-68
2022/10/31 00:15:57;;;;;;;2.83;1.40;;;;;;;9.83;100.00;99367.73;1713234;80;21865;-68
2022/10/31 00:18:25;;;;;;;6.62;1.50;;;;;;;9.86;100.00;99364.11;1765067;80;21463;-68
2022/10/31 00:21:02;;;;;;;4.03;1.50;;;;;;;9.83;100.00;99364.23;1751591;80;28749;-69
2022/10/31 00:23:30;;;;;;;2.87;1.20;;;;;;;9.83;100.00;99373.42;1761476;80;21487;-67
2022/10/31 00:26:01;;;;;;;4.05;1.30;;;;;;;9.85;100.00;99371.14;1761561;80;21431;-68
2022/10/31 00:28:30;;;;;;;3.70;1.20;;;;;;;9.85;100.00;99367.20;1766820;80;21450;-68
2022/10/31 00:31:02;;;;;;;7.47;1.52;;;;;;;9.81;100.00;99368.70;1755487;80;21651;-71
2022/10/31 00:33:30;;;;;;;2.05;0.95;;;;;;;9.79;100.00;99358.26;1771096;80;21415;-67
2022/10/31 00:35:58;;;;;;;4.12;1.50;;;;;;;9.77;100.00;99367.98;1765569;80;21570;-67
2022/10/31 00:38:25;;;;;;;6.22;1.40;;;;;;;9.77;100.00;99375.02;1764123;80;21518;-66
2022/10/31 00:40:51;;;;;;;2.45;1.40;;;;;;;9.74;100.00;99368.14;1757695;80;21805;-67
2022/10/31 00:43:19;;;;;;;3.40;1.30;;;;;;;9.74;100.00;99370.77;1759639;80;21443;-67
2022/10/31 00:45:47;;;;;;;1.17;1.07;;;;;;;9.74;100.00;99355.01;1770064;80;21506;-66
2022/10/31 00:48:13;;;;;;;3.47;1.70;;;;;;;9.77;100.00;99356.63;1750694;80;21494;-67
2022/10/31 00:50:41;;;;;;;1.80;1.10;;;;;;;9.76;100.00;99379.42;1747128;80;21426;-69
2022/10/31 00:53:08;;;;;;;2.95;1.45;;;;;;;9.74;100.00;99366.36;1757555;80;21900;-68
2022/10/31 00:55:34;;;;;;;6.65;1.65;;;;;;;9.74;100.00;99378.17;1770270;80;21529;-68
2022/10/31 00:58:02;;;;;;;3.17;1.17;;;;;;;9.72;100.00;99385.27;1756275;80;21458;-68
2022/10/31 01:00:29;;;;;;;5.13;1.57;;;;;;;9.74;100.00;99382.11;1744020;80;21463;-68
2022/10/31 01:02:56;;;;;;;3.63;1.50;;;;;;;9.77;100.00;99385.52;1756878;80;21640;-68
2022/10/31 01:05:23;;;;;;;2.72;1.17;;;;;;;9.78;100.00;99378.05;1762057;80;21940;-67
2022/10/31 01:07:49;;;;;;;3.03;1.20;;;;;;;9.83;100.00;99370.36;1754957;80;21435;-68
2022/10/31 01:10:18;;;;;;;;;;;;;;;9.80;100.00;99370.95;1768162;80;21517;-67
2022/10/31 01:12:48;;;;;;;7.95;1.30;;;;;;;9.73;100.00;99378.23;1769887;80;20408;-67
2022/10/31 01:15:21;;;;;;;3.10;1.32;;;;;;;9.70;100.00;99381.85;1763384;80;21558;-67
2022/10/31 01:17:49;;;;;;;3.37;1.20;;;;;;;9.72;100.00;99379.17;1754033;80;21821;-67
2022/10/31 01:20:16;;;;;;;3.23;1.20;;;;;;;9.71;100.00;99380.07;1754496;80;21483;-67
2022/10/31 01:22:44;;;;;;;2.17;1.30;;;;;;;9.74;100.00;99382.58;1760332;80;21029;-67
2022/10/31 01:25:13;;;;;;;4.03;1.60;;;;;;;9.82;100.00;99376.98;1755169;80;21494;-67
2022/10/31 01:27:39;;;;;;;2.75;1.45;;;;;;;9.85;100.00;99369.83;1758343;80;21506;-67
2022/10/31 01:30:08;;;;;;;4.08;1.20;;;;;;;9.87;100.00;99374.98;1767845;80;21829;-68
2022/10/31 01:32:35;;;;;;;;;;;;;;;9.88;100.00;99378.86;1767521;80;21041;-67
2022/10/31 01:35:02;;;;;;;2.02;1.10;;;;;;;9.89;100.00;99383.68;1762667;80;20143;-67
2022/10/31 01:37:30;;;;;;;1.92;1.07;;;;;;;9.89;100.00;99370.08;1769188;80;21540;-68
2022/10/31 01:39:57;;;;;;;7.60;2.12;;;;;;;9.92;100.00;99373.86;1741460;80;21619;-68
2022/10/31 01:42:24;;;;;;;4.37;1.83;;;;;;;9.92;100.00;99380.43;1753531;80;21530;-67
2022/10/31 01:44:58;;;;;;;3.67;1.55;;;;;;;9.90;100.00;99385.37;1751760;80;21487;-66
2022/10/31 01:47:41;;;;;;;4.08;1.50;;;;;;;9.92;100.00;99382.21;1752521;80;21519;-67
2022/10/31 01:50:28;;;;;;;4.00;1.57;;;;;;;9.91;100.00;99393.19;1761311;80;21552;-71
2022/10/31 01:52:55;;;;;;;6.55;1.55;;;;;;;9.89;100.00;99390.25;1764948;80;21047;-67
2022/10/31 01:55:29;;;;;;;3.92;1.70;;;;;;;9.88;100.00;99393.31;1758331;80;25758;-67
2022/10/31 01:58:07;;;;;;;4.12;1.85;;;;;;;9.86;100.00;99395.62;1755248;80;21470;-68
2022/10/31 02:00:34;;;;;;;4.67;1.52;;;;;;;9.89;100.00;99384.99;1757392;80;21581;-66
2022/10/31 02:03:02;;;;;;;2.17;1.30;;;;;;;9.88;100.00;99392.46;1755055;80;21065;-66
2022/10/31 02:05:29;;;;;;;3.17;1.37;;;;;;;9.88;100.00;99397.25;1749757;80;21151;-67
2022/10/31 02:08:24;;;;;;;5.97;1.35;;;;;;;9.86;100.00;99389.05;1750552;80;21946;-66
2022/10/31 02:10:51;;;;;;;5.03;1.42;;;;;;;9.81;100.00;99389.23;1760103;80;21881;-67
2022/10/31 02:13:18;;;;;;;6.12;1.27;;;;;;;9.77;100.00;99377.17;1760949;80;21553;-67
2022/10/31 02:15:51;;;;;;;2.92;1.40;;;;;;;9.73;100.00;99389.58;1752292;80;21435;-67
2022/10/31 02:18:18;;;;;;;4.12;1.17;;;;;;;9.71;100.00;99401.08;1754311;80;21561;-67
2022/10/31 02:21:11;;;;;;;2.95;1.27;;;;;;;9.69;100.00;99399.82;1759435;80;21812;-68
2022/10/31 02:24:12;;;;;;;2.55;1.10;;;;;;;9.67;100.00;99396.88;1714623;80;21061;-67
2022/10/31 02:27:34;;;;;;;4.17;1.42;;;;;;;9.63;100.00;99402.72;1752987;80;21487;-68
2022/10/31 02:30:13;;;;;;;4.75;1.32;;;;;;;9.61;100.00;99409.81;1765842;80;21491;-68
2022/10/31 02:33:07;;;;;;;2.75;1.27;;;;;;;9.55;100.00;99419.27;1757654;80;21490;-68
2022/10/31 02:35:49;;;;;;;2.75;1.65;;;;;;;9.51;100.00;99413.28;1726534;81;21663;-68
2022/10/31 02:38:31;;;;;;;2.25;1.45;;;;;;;9.50;100.00;99426.00;1734647;80;21518;-68
2022/10/31 02:41:37;;;;;;;5.08;1.32;;;;;;;9.49;100.00;99423.00;1754746;80;21491;-67
2022/10/31 02:44:37;;;;;;;2.50;1.27;;;;;;;9.46;100.00;99428.36;1750585;80;21576;-67
2022/10/31 02:47:11;;;;;;;2.55;1.40;;;;;;;9.47;100.00;99433.14;1756113;80;21140;-67
2022/10/31 02:49:46;;;;;;;7.30;1.30;;;;;;;9.51;100.00;99439.53;1750523;80;21510;-66
2022/10/31 02:52:26;;;;;;;3.12;1.20;;;;;;;9.53;100.00;99436.81;1724818;80;21026;-67
2022/10/31 02:54:54;;;;;;;4.28;1.35;;;;;;;9.52;100.00;99445.16;1759469;80;21608;-67
2022/10/31 02:57:28;;;;;;;10.13;1.70;;;;;;;9.53;100.00;99449.94;1702510;82;21467;-66
2022/10/31 03:00:06;;;;;;;5.58;1.30;;;;;;;9.53;100.00;99448.62;1693201;82;21508;-67
2022/10/31 03:03:00;;;;;;;3.07;1.80;;;;;;;9.49;100.00;99440.06;1688481;82;21899;-66
2022/10/31 03:06:06;;;;;;;3.95;1.20;;;;;;;9.46;100.00;99449.83;1670685;84;21476;-67
2022/10/31 03:08:57;;;;;;;3.60;1.30;;;;;;;9.42;100.00;99450.84;1683722;83;21539;-67
2022/10/31 03:11:28;;;;;;;4.08;1.30;;;;;;;9.37;100.00;99454.14;1685432;82;21507;-68
2022/10/31 03:14:02;;;;;;;5.87;1.55;;;;;;;9.34;100.00;99456.41;1683220;83;21658;-68
2022/10/31 03:16:51;;;;;;;3.05;1.17;;;;;;;9.35;100.00;99462.91;1681085;82;22384;-67
2022/10/31 03:19:24;;;;;;;;;;;;;;;9.37;100.00;99462.01;1687140;83;21542;-69
2022/10/31 03:22:06;;;;;;;3.17;1.40;;;;;;;9.29;100.00;99469.73;1684315;83;20174;-67
2022/10/31 03:24:36;;;;;;;4.40;1.22;;;;;;;9.30;100.00;99477.98;1695426;82;21558;-67
2022/10/31 03:27:03;;;;;;;5.33;1.75;;;;;;;9.32;100.00;99478.80;1689232;82;21523;-68
2022/10/31 03:29:34;;;;;;;3.92;1.47;;;;;;;9.38;100.00;99476.82;1687083;83;21830;-67
2022/10/31 03:32:07;;;;;;;3.87;1.40;;;;;;;9.40;100.00;99468.42;1686687;82;21443;-67
2022/10/31 03:34:36;;;;;;;4.17;1.45;;;;;;;9.45;100.00;99483.53;1691222;83;21574;-67
2022/10/31 03:37:05;;;;;;;4.80;1.42;;;;;;;9.47;100.00;99479.07;1687459;82;21014;-67
2022/10/31 03:39:32;;;;;;;2.65;1.07;;;;;;;9.48;100.00;99483.42;1687044;83;21584;-67
2022/10/31 03:42:08;;;;;;;2.92;0.98;;;;;;;9.51;100.00;99488.52;1679694;82;21760;-67
2022/10/31 03:44:35;;;;;;;4.08;1.35;;;;;;;9.53;100.00;99485.38;1694658;82;21581;-67
2022/10/31 03:47:03;;;;;;;2.62;1.10;;;;;;;9.57;100.00;99495.30;1682332;82;21506;-66
2022/10/31 03:49:30;;;;;;;2.20;1.10;;;;;;;9.57;100.00;99501.42;1686954;82;20979;-67
2022/10/31 03:52:09;;;;;;;4.00;1.10;;;;;;;9.60;100.00;99501.27;1679800;83;21535;-67
2022/10/31 03:54:46;;;;;;;2.72;1.07;;;;;;;9.64;100.00;99503.31;1692929;83;21773;-67
2022/10/31 03:57:23;;;;;;;2.62;1.12;;;;;;;9.65;100.00;99499.79;1716373;81;21582;-66
2022/10/31 03:59:55;;;;;;;3.47;1.27;;;;;;;9.66;100.00;99508.04;1700468;82;21011;-68
2022/10/31 04:02:27;;;;;;;2.45;1.20;;;;;;;9.62;100.00;99497.28;1699764;83;21023;-68
2022/10/31 04:04:55;;;;;;;4.50;1.50;;;;;;;9.58;100.00;99503.11;1715021;82;21541;-66
2022/10/31 04:07:21;;;;;;;3.47;1.50;;;;;;;9.51;100.00;99513.45;1713136;82;21843;-67
2022/10/31 04:09:49;;;;;;;5.00;1.57;;;;;;;9.45;100.00;99517.18;1718816;82;21437;-67
2022/10/31 04:12:18;;;;;;;2.30;1.47;;;;;;;9.43;100.00;99522.95;1695427;82;21538;-67
2022/10/31 04:14:54;;;;;;;4.40;2.00;;;;;;;9.39;100.00;99531.02;1696783;82;21502;-68
2022/10/31 04:17:23;;;;;;;2.58;1.62;;;;;;;9.32;100.00;99528.65;1714792;81;21566;-68
2022/10/31 04:19:50;;;;;;;4.42;1.80;;;;;;;9.29;100.00;99536.63;1744188;80;21845;-67
2022/10/31 04:22:19;;;;;;;3.65;1.75;;;;;;;9.22;100.00;99533.00;1728308;80;21396;-68
2022/10/31 04:24:46;;;;;;;2.95;1.50;;;;;;;9.19;100.00;99543.59;1757355;80;21537;-68
2022/10/31 04:27:14;;;;;;;3.50;1.87;;;;;;;9.18;100.00;99551.09;1741937;80;21592;-67
2022/10/31 04:29:42;;;;;;;5.17;2.05;;;;;;;9.16;100.00;99550.67;1750578;80;27227;-67
2022/10/31 04:32:08;;;;;;;4.28;1.10;;;;;;;9.13;100.00;99548.63;1742995;80;21840;-67
2022/10/31 04:34:36;;;;;;;;;;;;;;;9.11;100.00;99543.89;1749294;80;21567;-66
2022/10/31 04:37:04;;;;;;;2.37;1.10;;;;;;;9.02;100.00;99549.48;1750677;80;20407;-66
2022/10/31 04:39:32;;;;;;;2.10;1.10;;;;;;;9.01;100.00;99547.80;1752731;80;21605;-65
2022/10/31 04:42:18;;;;;;;0.72;0.50;;;;;;;8.98;100.00;99543.50;1756864;80;21566;-64
2022/10/31 04:44:45;;;;;;;3.72;0.70;;;;;;;8.98;100.00;99542.19;1752392;80;22150;-64
2022/10/31 04:47:12;;;;;;;3.17;1.20;;;;;;;8.94;100.00;99537.52;1747946;80;21617;-65
2022/10/31 04:49:39;;;;;;;1.52;0.70;;;;;;;8.92;100.00;99535.41;1740464;80;21486;-64
2022/10/31 04:52:08;;;;;;;1.05;0.50;;;;;;;8.87;100.00;99545.67;1753731;80;21470;-64
2022/10/31 04:54:35;;;;;;;2.77;0.57;;;;;;;8.85;100.00;99549.66;1743705;80;21533;-64
2022/10/31 04:57:21;;;;;;;2.60;0.80;;;;;;;8.78;100.00;99561.30;1732460;82;22192;-64
2022/10/31 04:59:48;;;;;;;0.88;0.55;;;;;;;8.78;100.00;99561.30;1723452;81;21609;-64
2022/10/31 05:02:15;;;;;;;0.40;0.40;;;;;;;8.71;100.00;99564.59;1740327;80;21639;-65
2022/10/31 05:04:44;;;;;;;1.60;0.60;;;;;;;8.61;100.00;99567.16;1740008;80;21536;-66
2022/10/31 05:07:11;;;;;;;2.52;0.40;;;;;;;8.56;100.00;99563.84;1754464;80;21498;-65
2022/10/31 05:09:38;;;;;;;1.97;0.73;;;;;;;8.54;100.00;99581.39;1762833;80;21857;-65
2022/10/31 05:12:05;;;;;;;0.55;0.50;;;;;;;8.50;100.00;99587.19;1749576;80;21581;-65
2022/10/31 05:14:50;;;;;;;3.20;0.57;;;;;;;8.51;100.00;99595.89;1754439;80;21041;-66
2022/10/31 05:17:22;;;;;;;0.98;0.60;;;;;;;8.48;100.00;99593.41;1706878;82;21610;-65
2022/10/31 05:19:54;;;;;;;2.05;0.60;;;;;;;8.50;100.00;99585.03;1660953;83;21490;-65
2022/10/31 05:22:22;;;;;;;2.98;0.82;;;;;;;8.52;100.00;99597.16;1675689;83;21982;-66
2022/10/31 05:24:49;;;;;;;2.15;1.00;;;;;;;8.57;100.00;99595.24;1700356;83;21215;-66
2022/10/31 05:27:16;;;;;;;2.75;0.70;;;;;;;8.57;100.00;99595.70;1722238;82;21511;-66
2022/10/31 05:29:42;;;;;;;0.72;0.60;;;;;;;8.54;100.00;99612.84;1720821;80;21612;-66
2022/10/31 05:32:09;;;;;;;1.70;0.50;;;;;;;8.51;100.00;99613.81;1755178;80;21581;-66
2022/10/31 05:34:47;;;;;;;2.62;0.90;;;;;;;8.53;100.00;99618.97;1686792;83;21902;-66
2022/10/31 05:37:18;;;;;;;1.35;0.50;;;;;;;8.54;100.00;99625.94;1743839;80;21549;-66
2022/10/31 05:39:45;;;;;;;5.97;0.80;;;;;;;8.46;100.00;99624.89;1757751;80;21502;-66
2022/10/31 05:42:13;;;;;;;2.42;0.50;;;;;;;8.43;100.00;99633.31;1753895;80;21538;-66
2022/10/31 05:44:40;;;;;;;2.83;0.60;;;;;;;8.45;100.00;99632.34;1749938;80;21639;-66
2022/10/31 05:47:13;;;;;;;1.85;0.60;;;;;;;8.44;100.00;99634.58;1756525;80;22139;-57
2022/10/31 05:49:58;;;;;;;1.15;0.70;;;;;;;8.46;100.00;99644.55;1720236;82;21487;-58
2022/10/31 05:52:32;;;;;;;2.65;0.60;;;;;;;8.48;100.00;99657.14;1751483;80;21556;-58
2022/10/31 05:55:01;;;;;;;1.20;0.40;;;;;;;8.48;100.00;99650.59;1765912;80;21456;-57
2022/10/31 05:57:29;;;;;;;0.62;0.45;;;;;;;8.48;100.00;99651.90;1745496;80;21430;-58
2022/10/31 05:59:56;;;;;;;;;;;;;;;8.52;100.00;99663.98;1757698;80;21868;-59
2022/10/31 06:02:24;;;;;;;0.93;0.50;;;;;;;8.54;100.00;99662.16;1762796;80;20170;-58
2022/10/31 06:04:55;;;;;;;2.15;0.60;;;;;;;8.56;100.00;99669.98;1751389;80;21537;-57
2022/10/31 06:07:22;;;;;;;2.37;0.80;;;;;;;8.58;100.00;99675.56;1763681;80;21633;-58
2022/10/31 06:09:50;;;;;;;2.40;0.70;;;;;;;8.63;100.00;99683.74;1754157;80;21472;-58
2022/10/31 06:12:17;;;;;;;2.47;0.93;;;;;;;8.64;100.00;99686.75;1760458;80;21491;-58
2022/10/31 06:15:05;;;;;;;2.62;0.78;;;;;;;8.65;100.00;99688.02;1756520;80;21565;-58
2022/10/31 06:17:35;;;;;;;1.95;0.90;;;;;;;8.68;100.00;99703.65;1752094;80;21502;-58
2022/10/31 06:20:08;;;;;;;2.20;1.02;;;;;;;8.72;100.00;99701.32;1756008;80;21537;-59
2022/10/31 06:22:38;;;;;;;1.62;1.10;;;;;;;8.75;100.00;99703.81;1751149;80;21469;-59
2022/10/31 06:25:06;;;;;;;1.00;0.68;;;;;;;8.78;100.00;99705.50;1755714;80;21729;-59
2022/10/31 06:27:34;;;;;;;0.88;0.50;;;;;;;8.81;100.00;99711.08;1759290;80;21466;-58
2022/10/31 06:30:04;;;;;;;1.42;0.62;;;;;;;8.81;100.00;99715.86;1740912;80;21044;-59
2022/10/31 06:32:34;;;;;;;1.65;0.98;;;;;;;8.83;100.00;99723.21;1748542;80;21574;-61
2022/10/31 06:35:00;;;;;;;2.40;0.82;;;;;;;8.88;100.00;99720.45;1760877;80;21530;-59
2022/10/31 06:37:27;;;;;;;1.30;0.60;;;;;;;8.91;100.00;99729.07;1765146;80;21805;-58
2022/10/31 06:39:55;;;;;;;2.98;0.55;;;;;;;8.97;100.00;99729.31;1761333;80;21601;-59
2022/10/31 06:42:22;;;;;;;1.52;0.70;;;;;;;9.00;100.00;99732.27;1756129;80;21617;-59
2022/10/31 06:44:49;;;;;;;1.17;0.60;;;;;;;9.01;100.00;99728.29;1755077;80;21517;-59
2022/10/31 06:47:35;;;;;;;1.35;0.70;;;;;;;8.98;100.00;99738.88;1749249;80;21451;-59
2022/10/31 06:50:08;;;;;;;1.85;0.70;;;;;;;9.00;100.00;99736.20;1754725;80;21848;-60
2022/10/31 06:52:35;;;;;;;1.20;0.70;;;;;;;9.05;100.00;99744.31;1746916;80;21431;-60
2022/10/31 06:55:05;;;;;;;1.80;0.57;;;;;;;9.12;100.00;99748.44;1761881;80;21597;-58
2022/10/31 06:57:32;;;;;;;;;;;;;;;9.16;100.00;99750.50;1756520;80;21539;-58
2022/10/31 06:59:59;;;;;;;1.60;0.60;;;;;;;9.19;100.00;99754.31;1761377;80;20144;-58
2022/10/31 07:02:28;;;;;;;0.95;0.60;;;;;;;9.27;100.00;99758.85;1755551;80;21986;-58
2022/10/31 07:04:56;;;;;;;2.37;0.90;;;;;;;9.33;100.00;99761.25;1762456;80;21515;-58
2022/10/31 07:07:24;;;;;;;1.57;0.90;;;;;;;9.37;100.00;99757.21;1747707;80;21489;-58
2022/10/31 07:09:51;;;;;;;2.05;0.78;;;;;;;9.42;100.00;99758.76;1753052;80;21682;-62
2022/10/31 07:12:20;;;;;;;2.25;0.80;;;;;;;9.47;100.00;99763.36;1760967;80;21513;-58
2022/10/31 07:14:50;;;;;;;0.55;0.55;;;;;;;9.53;100.00;99757.03;1755424;80;21796;-58
2022/10/31 07:17:17;;;;;;;;;;;;;;;9.60;100.00;99761.61;1752982;80;20993;-58
2022/10/31 07:19:47;;;;;;;1.77;0.70;;;;;;;9.60;100.00;99766.40;1744010;80;20430;-59
2022/10/31 07:22:15;;;;;;;1.02;0.70;;;;;;;9.63;100.00;99754.48;1755473;80;21541;-58
2022/10/31 07:24:43;;;;;;;3.27;1.30;;;;;;;9.68;100.00;99764.80;1760338;80;21588;-58
2022/10/31 07:27:12;;;;;;;2.95;0.57;;;;;;;9.67;100.00;99756.08;1741167;80;21879;-60
2022/10/31 07:29:39;;;;;;;0.43;0.40;;;;;;;9.71;100.00;99764.70;1751299;80;21470;-58
2022/10/31 07:32:09;;;;;;;6.35;0.70;;;;;;;9.75;100.00;99768.45;1757104;80;21597;-57
2022/10/31 07:34:38;;;;;;;1.65;0.72;;;;;;;9.82;100.00;99766.47;1764599;80;21531;-58
2022/10/31 07:37:22;;;;;;;2.55;0.60;;;;;;;9.83;100.00;99761.62;1759359;80;21423;-58
2022/10/31 07:39:50;;;;;;;1.27;0.62;;;;;;;9.84;100.00;99769.89;1749760;80;21890;-58
2022/10/31 07:42:19;;;;;;;2.98;0.70;;;;;;;9.96;100.00;99773.81;1752936;80;21593;-58
2022/10/31 07:44:46;;;;;;;1.30;0.42;;;;;;;10.02;100.00;99768.78;1761499;80;21505;-58
2022/10/31 07:47:16;;;;;;;0.40;0.40;;;;;;;10.04;100.00;99763.88;1757743;80;21586;-58
2022/10/31 07:50:02;;;;;;;2.33;0.60;;;;;;;10.07;100.00;99766.38;1755776;80;21530;-58
2022/10/31 07:52:48;;;;;;;2.83;0.80;;;;;;;10.07;100.00;99767.69;1757498;80;22070;-58
2022/10/31 07:55:17;;;;;;;1.65;0.60;;;;;;;10.13;100.00;99766.59;1739658;80;21576;-59
2022/10/31 07:57:47;;;;;;;2.15;0.70;;;;;;;10.10;100.00;99764.11;1762298;80;21049;-58
2022/10/31 08:00:14;;;;;;;0.62;0.62;;;;;;;10.14;100.00;99774.89;1745622;80;21585;-59
2022/10/31 08:02:43;;;;;;;1.07;0.55;;;;;;;10.16;100.00;99782.25;1774506;80;21414;-58
2022/10/31 08:05:12;;;;;;;0.75;0.57;;;;;;;10.21;100.00;99777.68;1753197;80;22045;-58
2022/10/31 08:07:58;;;;;;;4.15;0.70;;;;;;;10.31;100.00;99780.83;1768474;80;21504;-59
2022/10/31 08:10:26;;;;;;;;;;;;;;;10.40;100.00;99779.16;1746863;80;21565;-58
2022/10/31 08:12:58;;;;;;;2.52;0.80;;;;;;;10.44;100.00;99786.46;1762567;80;20467;-59
2022/10/31 08:15:26;;;;;;;1.45;0.85;;;;;;;10.46;100.00;99782.84;1758112;80;21629;-59
2022/10/31 08:17:53;;;;;;;1.22;0.70;;;;;;;10.51;100.00;99791.41;1776261;80;21759;-59
2022/10/31 08:20:20;;;;;;;2.65;0.95;;;;;;;10.54;100.00;99788.25;1763199;80;21399;-60
2022/10/31 08:23:01;;;;;;;2.15;1.30;;;;;;;10.62;100.00;99794.05;1767419;80;21478;-60
2022/10/31 08:25:32;;;;;;;3.77;0.82;;;;;;;10.68;100.00;99788.53;1763659;80;21564;-58
2022/10/31 08:28:01;;;;;;;1.20;0.75;;;;;;;10.74;100.00;99790.94;1761074;80;21009;-58
2022/10/31 08:30:31;;;;;;;1.50;0.70;;;;;;;10.82;100.00;99792.78;1759975;80;21820;-60
2022/10/31 08:33:06;;;;;;;1.60;0.60;;;;;;;10.94;100.00;99785.29;1729053;80;21501;-58
2022/10/31 08:35:53;;;;;;;1.37;0.50;;;;;;;10.99;100.00;99799.97;1760318;80;21072;-58
2022/10/31 08:38:39;;;;;;;1.70;0.75;;;;;;;11.00;100.00;99800.38;1770036;80;21526;-60
2022/10/31 08:41:08;;;;;;;0.98;0.50;;;;;;;10.97;100.00;99797.02;1767286;80;22042;-58
2022/10/31 08:43:36;;;;;;;1.42;0.47;;;;;;;10.98;100.00;99790.81;1760543;79;21843;-58
2022/10/31 08:46:05;;;;;;;1.35;0.47;;;;;;;11.04;100.00;99790.58;1764214;80;21211;-57
2022/10/31 08:48:33;;;;;;;1.87;0.60;;;;;;;11.12;100.00;99800.78;1758759;80;21577;-58
2022/10/31 08:51:00;;;;;;;;;;;;;;;11.14;99.43;99808.14;1764221;80;21455;-58
2022/10/31 08:53:28;;;;;;;2.90;0.60;;;;;;;11.19;95.59;99800.88;1767928;80;20502;-58
2022/10/31 08:56:00;;;;;;;0.70;0.60;;;;;;;11.26;98.19;99795.76;1751840;80;21819;-58
2022/10/31 08:58:27;;;;;;;0.40;0.40;;;;;;;11.34;100.00;99775.24;1771723;80;21541;-57
2022/10/31 09:00:59;;;;;;;0.65;0.30;;;;;;;11.39;96.46;99789.50;1759781;80;21628;-58
2022/10/31 09:03:28;;;;;;;0.70;0.47;;;;;;;11.48;99.49;99790.42;1760776;80;21474;-58
2022/10/31 09:05:57;;;;;;;0.68;0.50;;;;;;;11.55;95.53;99797.13;1743550;81;21002;-58
2022/10/31 09:08:25;;;;;;;1.75;0.70;;;;;;;11.67;95.70;99785.19;1733367;81;21515;-57
2022/10/31 09:10:52;;;;;;;2.08;0.50;;;;;;;11.70;93.20;99778.47;1733712;81;21537;-59
2022/10/31 09:13:23;;;;;;;1.25;0.50;;;;;;;11.73;89.31;99777.47;1743801;81;21436;-57
2022/10/31 09:16:08;;;;;;;2.30;0.47;;;;;;;11.80;88.65;99773.64;1737466;81;21483;-58
2022/10/31 09:18:35;;;;;;;0.30;0.20;;;;;;;11.85;86.02;99782.19;1739811;81;21577;-58
2022/10/31 09:21:03;;;;;;;4.97;0.50;;;;;;;11.91;87.26;99785.89;1739573;81;21935;-58
2022/10/31 09:23:30;;;;;;;0.85;0.50;;;;;;;12.01;87.61;99783.20;1732477;80;20995;-62
2022/10/31 09:26:00;;;;;;;3.35;0.40;;;;;;;12.16;87.97;99776.83;1741214;81;21467;-59
2022/10/31 09:28:37;;;;;;;2.15;0.40;;;;;;;12.29;85.18;99774.48;1737712;81;20958;-58
2022/10/31 09:31:12;;;;;;;2.70;0.45;;;;;;;12.42;80.30;99769.84;1749702;80;21549;-59
2022/10/31 09:33:48;;;;;;;2.55;0.40;;;;;;;12.57;82.68;99779.27;1734783;81;21747;-58
2022/10/31 09:36:23;;;;;;;1.50;0.55;;;;;;;12.86;83.37;99769.90;1722473;81;21557;-60
2022/10/31 09:38:51;;;;;;;1.02;0.55;;;;;;;13.08;79.04;99781.55;1736532;81;21498;-60
2022/10/31 09:41:48;;;;;;;1.85;0.50;;;;;;;13.10;75.21;99771.77;1746384;81;21545;-59
2022/10/31 09:44:53;;;;;;;2.37;0.45;;;;;;;13.12;73.36;99772.54;1735878;81;22032;-60
2022/10/31 09:47:34;;;;;;;2.30;0.75;;;;;;;13.07;73.90;99774.55;1737844;81;21748;-61
2022/10/31 09:50:21;;;;;;;0.72;0.53;;;;;;;13.05;74.50;99767.18;1675502;81;21095;-59
2022/10/31 09:53:02;;;;;;;0.57;0.40;;;;;;;13.22;73.38;99777.75;1747433;81;21502;-59
2022/10/31 09:55:39;;;;;;;2.33;0.70;;;;;;;13.28;71.82;99773.06;1734599;81;21462;-58
2022/10/31 09:58:26;;;;;;;2.27;0.60;;;;;;;13.31;70.93;99769.83;1726641;81;21057;-58
2022/10/31 10:00:55;;;;;;;1.10;0.50;;;;;;;13.36;70.97;99778.85;1719833;82;21763;-58
2022/10/31 10:03:37;;;;;;;1.42;0.70;;;;;;;13.46;71.32;99776.58;1724808;81;21423;-59
2022/10/31 10:06:14;;;;;;;1.82;1.02;;;;;;;13.57;67.81;99789.59;1718348;80;21514;-60
2022/10/31 10:08:46;;;;;;;2.33;0.90;;;;;;;13.63;66.69;99787.94;1658003;80;21631;-58
2022/10/31 10:12:09;;;;;;;4.72;1.47;;;;;;;13.23;67.81;99784.72;1779414;78;23290;-59
2022/10/31 10:14:49;;;;;;;0.90;0.60;;;;;;;13.60;67.34;99766.14;1735725;80;21025;-60
2022/10/31 10:17:36;;;;;;;1.70;0.62;;;;;;;13.56;64.38;99760.61;1708913;81;21900;-59
2022/10/31 10:20:31;;;;;;;0.65;0.62;;;;;;;13.43;66.28;99774.96;1694950;81;21435;-58
2022/10/31 10:23:14;;;;;;;0.50;0.40;;;;;;;13.38;70.19;99775.19;1700292;81;21493;-58
2022/10/31 10:25:41;;;;;;;2.37;0.47;;;;;;;13.50;70.72;99775.48;1681904;83;21513;-59
2022/10/31 10:28:23;;;;;;;0.78;0.40;;;;;;;13.53;72.31;99780.13;1688775;82;21544;-59
2022/10/31 10:31:17;;;;;;;0.40;0.40;;;;;;;13.62;71.11;99778.33;1689883;82;21910;-59
2022/10/31 10:34:02;;;;;;;1.37;0.20;;;;;;;13.68;69.82;99786.88;1687693;82;20978;-59
2022/10/31 10:36:40;;;;;;;1.57;0.47;;;;;;;13.76;66.18;99783.34;1696025;82;21562;-59
2022/10/31 10:39:20;;;;;;;3.58;3.27;;;;;;;13.74;61.60;99772.84;1690261;82;21538;-60
2022/10/31 10:47:46;;;;;;;2.33;1.60;;;;;;;13.63;61.40;99785.78;1682298;82;21637;-59
2022/10/31 10:50:23;;;;;;;2.85;1.45;;;;;;;13.68;60.23;99785.55;1698545;82;21562;-59
2022/10/31 10:53:32;;;;;;;1.55;1.30;;;;;;;13.75;59.24;99779.85;1664672;83;21606;-58
2022/10/31 10:56:19;;;;;;;1.25;0.68;;;;;;;13.96;59.42;99787.08;1690498;82;20958;-60
2022/10/31 10:58:47;;;;;;;1.35;0.60;;;;;;;14.05;55.16;99780.42;1691486;82;21901;-60
2022/10/31 11:01:14;;;;;;;0.72;0.57;;;;;;;13.95;53.40;99781.39;1693631;83;21010;-58
2022/10/31 11:03:41;;;;;;;2.10;1.22;;;;;;;13.88;54.31;99776.08;1687708;82;21502;-58
2022/10/31 11:06:25;;;;;;;1.02;0.70;;;;;;;13.90;52.00;99772.89;1695059;82;21562;-58
2022/10/31 11:08:52;;;;;;;0.75;0.55;;;;;;;13.83;49.80;99766.22;1704609;81;21537;-57
2022/10/31 11:11:31;;;;;;;1.10;0.40;;;;;;;13.66;48.69;99774.21;1693365;82;21864;-58
2022/10/31 11:14:09;;;;;;;0.72;0.45;;;;;;;13.54;48.44;99776.57;1692150;82;21622;-57
2022/10/31 11:16:39;;;;;;;1.20;0.50;;;;;;;13.47;48.30;99777.83;1693748;82;21550;-59
2022/10/31 11:19:15;;;;;;;3.58;0.53;;;;;;;13.44;47.15;99771.38;1739406;80;21006;-59
2022/10/31 11:21:44;;;;;;;1.30;0.53;;;;;;;13.42;46.74;99771.92;1734417;80;21455;-57
2022/10/31 11:24:16;;;;;;;2.05;0.55;;;;;;;13.51;46.70;99771.44;1696403;82;22140;-58
2022/10/31 11:26:45;;;;;;;1.55;0.40;;;;;;;13.65;45.79;99784.38;1733040;79;21440;-59
2022/10/31 11:29:24;;;;;;;0.42;0.40;;;;;;;13.72;45.53;99782.64;1726185;80;21510;-59
2022/10/31 11:31:56;;;;;;;0.60;0.50;;;;;;;13.89;45.32;99776.45;1744811;80;21167;-58
2022/10/31 11:34:35;;;;;;;1.77;0.30;;;;;;;14.09;45.52;99783.75;1735037;80;21552;-58
2022/10/31 11:37:17;;;;;;;0.60;0.35;;;;;;;14.23;45.86;99778.56;1738911;80;21815;-59
2022/10/31 11:39:53;;;;;;;0.50;0.33;;;;;;;14.37;45.14;99772.48;1739536;80;20999;-57
2022/10/31 11:42:26;;;;;;;1.02;0.45;;;;;;;14.54;42.93;99786.95;1731873;80;21529;-58
2022/10/31 11:44:54;;;;;;;4.37;1.98;;;;;;;14.48;42.36;99783.31;1734021;80;21645;-59
2022/10/31 11:47:29;;;;;;;1.52;1.02;;;;;;;14.52;42.46;99778.70;1733305;80;21550;-59
2022/10/31 11:49:56;;;;;;;1.57;0.55;;;;;;;14.50;41.48;99781.43;1725182;80;22156;-58
2022/10/31 11:52:27;;;;;;;4.65;2.40;;;;;;;14.53;40.51;99786.55;1690642;83;21494;-58
2022/10/31 11:55:17;;;;;;;4.90;2.17;;;;;;;14.57;41.00;99774.05;1697758;82;21152;-59
2022/10/31 11:57:50;;;;;;;3.27;1.32;;;;;;;14.64;41.02;99774.56;1732531;80;21016;-58
2022/10/31 12:00:27;;;;;;;1.35;0.80;;;;;;;14.57;40.31;99768.27;1725944;80;21550;-58
2022/10/31 12:03:17;;;;;;;0.93;0.50;;;;;;;14.56;40.01;99780.23;1733911;80;21739;-61
2022/10/31 12:05:45;;;;;;;1.87;1.00;;;;;;;14.48;39.72;99778.50;1728267;80;20958;-61
2022/10/31 12:08:15;;;;;;;1.57;0.90;;;;;;;14.48;39.72;99781.14;1711503;79;21079;-66